Aviation Digital Data Service (ADDS)

Output produced by METARs form (2106 UTC 24 March 2019)
found at http://www.aviationweather.gov/metar/data/
 
EVLA 242050Z AUTO 21010KT 9999 OVC006/// 03/02 Q1013
TAF EVLA 242002Z 2421/2521 22010KT 9999 BKN005 
     TEMPO 2421/2424 0700 FG BKN001 
     BECMG 2500/2502 BKN015 
     TEMPO 2509/2518 4000 SHRA BKN015CB 
     BECMG 2510/2512 33007KT
       
EVRA 242050Z 23006KT CAVOK 03/M04 Q1012 R18/190095 NOSIG
TAF EVRA 242000Z 2421/2521 22007KT CAVOK 
     TEMPO 2500/2506 1500 RASN BR BKN002 OVC010 
     PROB40 
     TEMPO 2500/2506 0700 FG VV001 
     BECMG 2510/2512 32010KT 
     TEMPO 2510/2515 4000 SHRA BKN015CB 
     PROB40 
     TEMPO 2510/2515 TS
       
EVVA 242050Z AUTO 21013KT CAVOK 03/02 Q1011